Hightown, Virginia
Current Conditions -  °F | °C
As of 10:55 PM on Tuesday 21 Oct 2014 (Local Time) from KHSP Reporting Station
Overcast Overcast  
Wind Chill: 33°   Ceiling: 800
Heat Index: 40°   Visibility: 10mi
Dew Point: 38°   Wind: 12mph
Humidity: 92%   Direction: 300°WNW
Pressure: 29.94"   Gusts: 21mph
Location:  38.3937°N, 79.6382°W
Report Text: KHSP 220255Z AUTO 30010G18KT 10SM OVC008 05/03 A2994 RMK AO2 T00450033
Loading
Personal Weather Stations






























Interactive Weather Map
Tropical Storm Tracking
New forecast layout! Learn more

10-Day Weather Forecast

Advertisements
Track Severe Weather on mobile